createdAt,value
2017-01-15T00:00:23.013Z,1.13
2017-01-15T00:01:10.846Z,1.1
2017-01-15T00:01:55.806Z,0.99
2017-01-15T00:02:42.719Z,1.01
2017-01-15T00:03:27.728Z,1.02
2017-01-15T00:04:10.737Z,0.95
2017-01-15T00:05:51.512Z,0.96
2017-01-15T00:06:33.289Z,0.98
2017-01-15T00:07:17.398Z,1.02
2017-01-15T00:08:00.388Z,0.98
2017-01-15T00:08:43.348Z,0.95
2017-01-15T00:09:27.325Z,0.92
2017-01-15T00:10:08.309Z,1.02
2017-01-15T00:10:50.434Z,0.95
2017-01-15T00:11:36.322Z,0.95
2017-01-15T00:12:17.491Z,1.04
2017-01-15T00:12:59.889Z,0.91
2017-01-15T00:13:40.450Z,0.88
2017-01-15T00:15:28.744Z,0.94
2017-01-15T00:16:09.840Z,0.95
2017-01-15T00:17:02.623Z,0.91
2017-01-15T00:17:55.803Z,0.78
2017-01-15T00:18:36.809Z,0.8
2017-01-15T00:19:19.712Z,0.86
2017-01-15T00:20:03.109Z,0.81
2017-01-15T00:20:46.293Z,0.76
2017-01-15T00:21:29.228Z,0.84
2017-01-15T00:22:14.135Z,0.68
2017-01-15T00:22:55.495Z,0.7
2017-01-15T00:23:37.825Z,0.76
2017-01-15T00:24:20.194Z,0.74
2017-01-15T00:25:03.216Z,0.68
2017-01-15T00:25:46.212Z,0.76
2017-01-15T00:26:31.102Z,0.66
2017-01-15T00:27:14.304Z,0.77
2017-01-15T00:27:55.627Z,0.65
2017-01-15T00:28:39.615Z,0.81
2017-01-15T00:29:24.624Z,0.78
2017-01-15T00:30:09.614Z,0.76
2017-01-15T00:30:50.149Z,0.74
2017-01-15T00:31:31.310Z,0.76
2017-01-15T00:32:11.769Z,0.73
2017-01-15T00:32:54.191Z,0.69
2017-01-15T00:35:11.249Z,0.63
2017-01-15T00:35:52.045Z,0.7
2017-01-15T00:36:36.266Z,0.78
2017-01-15T00:37:23.456Z,0.74
2017-01-15T00:38:06.282Z,0.73
2017-01-15T00:38:46.775Z,0.76
2017-01-15T00:39:32.859Z,0.73
2017-01-15T00:40:13.324Z,0.7
2017-01-15T00:40:54.694Z,0.73
2017-01-15T00:41:41.293Z,0.68
2017-01-15T00:42:22.707Z,0.73
2017-01-15T00:43:03.851Z,0.74
2017-01-15T00:43:44.933Z,0.73
2017-01-15T00:44:26.955Z,0.76
2017-01-15T00:45:08.270Z,0.74
2017-01-15T00:45:50.475Z,0.78
2017-01-15T00:46:33.346Z,0.73
2017-01-15T00:47:13.856Z,0.76
2017-01-15T00:47:55.079Z,0.77
2017-01-15T00:48:38.939Z,0.68
2017-01-15T00:49:20.882Z,0.78
2017-01-15T00:51:45.524Z,0.69
2017-01-15T00:52:27.455Z,0.7
2017-01-15T00:53:10.021Z,0.7
2017-01-15T00:54:48.837Z,0.69
2017-01-15T00:55:31.674Z,0.7
2017-01-15T00:56:12.695Z,0.78
2017-01-15T00:56:55.610Z,0.7
2017-01-15T00:57:43.687Z,0.7
2017-01-15T00:58:26.697Z,0.7
2017-01-15T00:59:13.597Z,0.76
2017-01-15T00:59:54.705Z,0.73
2017-01-15T01:00:36.708Z,0.7
2017-01-15T01:01:17.711Z,0.73
2017-01-15T01:02:00.628Z,0.73
2017-01-15T01:02:43.781Z,0.76
2017-01-15T01:03:24.987Z,0.68
2017-01-15T01:04:10.780Z,0.69
2017-01-15T01:04:52.602Z,0.78
2017-01-15T01:05:50.711Z,0.84
2017-01-15T01:06:32.897Z,0.84
2017-01-15T01:07:14.761Z,0.8
2017-01-15T01:07:56.709Z,0.94
2017-01-15T01:11:54.523Z,0.91
2017-01-15T01:12:34.903Z,0.99
2017-01-15T01:13:16.575Z,0.99
2017-01-15T01:14:04.659Z,0.98
2017-01-15T01:14:46.778Z,1.02
2017-01-15T01:15:29.143Z,0.96
2017-01-15T01:16:13.117Z,0.88
2017-01-15T01:16:55.545Z,0.95
2017-01-15T01:17:37.683Z,1.01
2017-01-15T01:18:20.542Z,0.99
2017-01-15T01:19:04.528Z,0.96
2017-01-15T01:19:46.704Z,1.01
2017-01-15T01:20:45.681Z,1.01
2017-01-15T01:21:33.514Z,0.98
2017-01-15T01:22:16.721Z,1.12
2017-01-15T01:23:09.559Z,1.1
2017-01-15T01:23:56.515Z,1.02
2017-01-15T01:26:15.896Z,1.22
2017-01-15T01:26:56.746Z,1.16
2017-01-15T01:27:37.974Z,1.12
2017-01-15T01:28:26.594Z,1.14
2017-01-15T01:29:11.733Z,1.24
2017-01-15T01:29:54.611Z,1.19
2017-01-15T01:30:36.607Z,1.14
2017-01-15T01:31:29.781Z,1.17
2017-01-15T01:32:16.789Z,1.16
2017-01-15T01:32:58.782Z,1.22
2017-01-15T01:33:42.678Z,1.2
2017-01-15T01:34:36.703Z,1.14
2017-01-15T01:35:18.607Z,1.16
2017-01-15T01:36:58.229Z,1.06
2017-01-15T01:37:39.345Z,1.19
2017-01-15T01:38:19.846Z,1.12
2017-01-15T01:39:02.129Z,1.13
2017-01-15T01:39:44.275Z,1.1
2017-01-15T01:40:24.784Z,1.06
2017-01-15T01:41:08.763Z,1.1
2017-01-15T01:41:51.870Z,1.13
2017-01-15T01:42:35.701Z,1.14
2017-01-15T01:43:16.836Z,1.14
2017-01-15T01:43:59.777Z,1.2
2017-01-15T01:46:15.425Z,1.3
2017-01-15T01:47:05.411Z,1.22
2017-01-15T01:47:46.448Z,1.22
2017-01-15T01:49:26.571Z,1.32
2017-01-15T01:50:09.523Z,1.38
2017-01-15T01:50:50.704Z,1.35
2017-01-15T01:51:32.860Z,1.34
2017-01-15T01:52:16.609Z,1.41
2017-01-15T01:52:59.799Z,1.38
2017-01-15T01:53:47.512Z,1.38
2017-01-15T01:54:29.510Z,1.4
2017-01-15T01:55:11.607Z,1.35
2017-01-15T01:55:53.698Z,1.41
2017-01-15T01:56:45.030Z,1.44
2017-01-15T01:57:27.203Z,1.42
2017-01-15T01:58:25.024Z,1.38
2017-01-15T02:00:19.979Z,1.41
2017-01-15T02:01:02.812Z,1.3
2017-01-15T02:01:48.813Z,1.34
2017-01-15T02:02:30.988Z,1.24
2017-01-15T02:03:14.819Z,1.31
2017-01-15T02:03:56.064Z,1.23
2017-01-15T02:04:38.836Z,1.23
2017-01-15T02:05:29.938Z,1.23
2017-01-15T02:06:11.322Z,1.23
2017-01-15T02:06:53.750Z,1.14
2017-01-15T02:07:36.900Z,1.19
2017-01-15T02:08:18.888Z,1.2
2017-01-15T02:09:01.804Z,1.12
2017-01-15T02:09:43.897Z,1.13
2017-01-15T02:10:24.928Z,1.05
2017-01-15T02:11:07.000Z,1.02
2017-01-15T02:11:49.124Z,1.06
2017-01-15T02:12:30.901Z,1.02
2017-01-15T02:13:14.030Z,1.01
2017-01-15T02:13:57.398Z,1.02
2017-01-15T02:14:39.396Z,0.94
2017-01-15T02:15:26.309Z,0.99
2017-01-15T02:16:08.504Z,1.01
2017-01-15T02:16:51.495Z,0.92
2017-01-15T02:17:33.321Z,0.98
2017-01-15T02:18:16.516Z,0.88
2017-01-15T02:18:59.500Z,0.86
2017-01-15T02:19:44.308Z,0.92
2017-01-15T02:20:30.345Z,0.92
2017-01-15T02:21:11.620Z,0.91
2017-01-15T02:21:54.004Z,0.91
2017-01-15T02:22:35.229Z,0.91
2017-01-15T02:23:20.330Z,0.8
2017-01-15T02:24:00.815Z,0.77
2017-01-15T02:24:43.896Z,0.83
2017-01-15T02:25:25.912Z,0.8
2017-01-15T02:26:07.328Z,0.81
2017-01-15T02:26:48.505Z,0.81
2017-01-15T02:27:28.987Z,0.74
2017-01-15T02:28:10.215Z,0.76
2017-01-15T02:28:50.739Z,0.8
2017-01-15T02:29:36.323Z,0.77
2017-01-15T02:30:17.503Z,0.68
2017-01-15T02:30:58.033Z,0.77
2017-01-15T02:31:40.009Z,0.76
2017-01-15T02:32:22.918Z,0.78
2017-01-15T02:33:05.928Z,0.76
2017-01-15T02:33:51.808Z,0.69
2017-01-15T02:34:33.894Z,0.73
2017-01-15T02:35:17.024Z,0.77
2017-01-15T02:35:58.330Z,0.69
2017-01-15T02:36:41.315Z,0.66
2017-01-15T02:37:24.510Z,0.74
2017-01-15T02:38:04.981Z,0.6
2017-01-15T02:38:45.994Z,0.66
2017-01-15T02:39:29.097Z,0.6
2017-01-15T02:40:11.569Z,0.7
2017-01-15T02:40:54.327Z,0.62
2017-01-15T02:41:38.340Z,0.69
2017-01-15T02:42:19.634Z,0.62
2017-01-15T02:43:01.833Z,0.62
2017-01-15T02:43:48.992Z,0.66
2017-01-15T02:44:29.456Z,0.62
2017-01-15T02:45:17.338Z,0.63
2017-01-15T02:46:01.419Z,0.59
2017-01-15T02:46:48.321Z,0.58
2017-01-15T02:47:30.528Z,0.56
2017-01-15T02:48:11.574Z,0.55
2017-01-15T02:49:00.838Z,0.52
2017-01-15T02:49:43.843Z,0.58
2017-01-15T02:50:26.933Z,0.55
2017-01-15T02:51:09.815Z,0.5
2017-01-15T02:51:50.397Z,0.41
2017-01-15T02:52:35.687Z,0.49
2017-01-15T02:53:17.282Z,0.55
2017-01-15T02:53:58.738Z,0.47
2017-01-15T02:54:47.825Z,0.46
2017-01-15T02:55:30.204Z,0.47
2017-01-15T02:56:15.830Z,0.43
2017-01-15T02:57:03.102Z,0.47
2017-01-15T02:57:44.813Z,0.46
2017-01-15T02:58:27.998Z,0.47
2017-01-15T02:59:08.489Z,0.43
2017-01-15T02:59:53.373Z,0.43
2017-01-15T03:00:45.333Z,0.49
2017-01-15T03:01:29.371Z,0.41
2017-01-15T03:02:10.755Z,0.5
2017-01-15T03:03:05.916Z,0.32
2017-01-15T03:03:56.868Z,0.44
2017-01-15T03:04:39.815Z,0.37
2017-01-15T03:05:25.908Z,0.36
2017-01-15T03:06:10.828Z,0.47
2017-01-15T03:07:07.844Z,0.4
2017-01-15T03:07:51.833Z,0.43
2017-01-15T03:08:32.360Z,0.47
2017-01-15T03:09:18.359Z,0.36
2017-01-15T03:10:01.307Z,0.4
2017-01-15T03:10:43.718Z,0.43
2017-01-15T03:11:40.332Z,0.34
2017-01-15T03:12:21.824Z,0.46
2017-01-15T03:13:03.823Z,0.37
2017-01-15T03:13:46.909Z,0.4
2017-01-15T03:14:29.818Z,0.39
2017-01-15T03:15:16.029Z,0.43
2017-01-15T03:16:07.225Z,0.41
2017-01-15T03:16:54.324Z,0.46
2017-01-15T03:17:41.390Z,0.43
2017-01-15T03:18:28.341Z,0.31
2017-01-15T03:19:14.329Z,0.44
2017-01-15T03:20:05.435Z,0.43
2017-01-15T03:20:47.550Z,0.4
2017-01-15T03:21:30.564Z,0.34
2017-01-15T03:22:18.337Z,0.4
2017-01-15T03:23:01.322Z,0.36
2017-01-15T03:25:18.106Z,0.4
2017-01-15T03:26:09.022Z,0.34
2017-01-15T03:26:54.044Z,0.36
2017-01-15T03:27:42.109Z,0.32
2017-01-15T03:28:31.988Z,0.32
2017-01-15T03:29:14.489Z,0.43
2017-01-15T03:30:01.500Z,0.32
2017-01-15T03:30:42.930Z,0.31
2017-01-15T03:31:26.171Z,0.39
2017-01-15T03:32:08.065Z,0.41
2017-01-15T03:32:54.127Z,0.4
2017-01-15T03:33:39.247Z,0.41
2017-01-15T03:34:22.022Z,0.41
2017-01-15T03:35:03.078Z,0.36
2017-01-15T03:37:08.765Z,0.49
2017-01-15T03:37:50.072Z,0.46
2017-01-15T03:38:49.067Z,0.4
2017-01-15T03:39:32.171Z,0.46
2017-01-15T03:40:21.171Z,0.56
2017-01-15T03:41:03.291Z,0.55
2017-01-15T03:41:45.051Z,0.5
2017-01-15T03:42:26.054Z,0.66
2017-01-15T03:43:07.305Z,0.62
2017-01-15T03:43:55.068Z,0.6
2017-01-15T03:44:40.067Z,0.63
2017-01-15T03:45:29.052Z,0.73
2017-01-15T03:46:10.318Z,0.68
2017-01-15T03:46:51.500Z,0.63
2017-01-15T03:47:32.568Z,0.7
2017-01-15T03:48:13.029Z,0.74
2017-01-15T03:48:54.249Z,0.7
2017-01-15T03:49:35.634Z,0.76
2017-01-15T03:50:19.577Z,0.76
2017-01-15T03:51:05.578Z,0.73
2017-01-15T03:53:03.914Z,0.77
2017-01-15T03:53:44.978Z,0.65
2017-01-15T03:54:26.382Z,0.73
2017-01-15T03:55:09.578Z,0.77
2017-01-15T03:55:51.429Z,0.81
2017-01-15T03:56:33.492Z,0.78
2017-01-15T03:57:16.577Z,0.81
2017-01-15T03:58:02.407Z,0.81
2017-01-15T03:58:44.635Z,0.76
2017-01-15T03:59:30.582Z,0.83
2017-01-15T04:00:15.410Z,0.92
2017-01-15T04:00:59.494Z,0.81
2017-01-15T04:01:42.494Z,0.99
2017-01-15T04:02:26.430Z,0.98
2017-01-15T04:03:09.389Z,0.94
2017-01-15T04:03:49.874Z,1.04
2017-01-15T04:04:32.074Z,0.98
2017-01-15T04:05:12.537Z,0.99
2017-01-15T04:05:58.575Z,1.1
2017-01-15T04:06:43.399Z,1.05
2017-01-15T04:07:33.497Z,1.08
2017-01-15T04:08:15.618Z,1.13
2017-01-15T04:09:15.417Z,1.1
2017-01-15T04:09:57.674Z,1.14
2017-01-15T04:10:39.460Z,1.1
2017-01-15T04:11:22.919Z,1.23
2017-01-15T04:14:50.583Z,1.26
2017-01-15T04:15:33.445Z,1.3
2017-01-15T04:16:21.372Z,1.23
2017-01-15T04:17:04.395Z,1.3
2017-01-15T04:17:46.265Z,1.34
2017-01-15T04:18:33.469Z,1.28
2017-01-15T04:19:14.035Z,1.34
2017-01-15T04:19:55.283Z,1.35
2017-01-15T04:20:38.274Z,1.34
2017-01-15T04:21:19.363Z,1.35
2017-01-15T04:22:02.507Z,1.35
2017-01-15T04:22:44.856Z,1.31
2017-01-15T04:23:30.864Z,1.34
2017-01-15T04:24:14.797Z,1.34
2017-01-15T04:25:00.951Z,1.35
2017-01-15T04:25:42.775Z,1.4
2017-01-15T04:26:24.187Z,1.37
2017-01-15T04:27:07.866Z,1.31
2017-01-15T04:27:49.085Z,1.32
2017-01-15T04:28:35.784Z,1.34
2017-01-15T04:29:19.872Z,1.19
2017-01-15T04:30:00.342Z,1.19
2017-01-15T04:30:43.382Z,1.26
2017-01-15T04:31:26.272Z,1.26
2017-01-15T04:32:06.749Z,1.28
2017-01-15T04:32:48.778Z,1.24
2017-01-15T04:33:33.872Z,1.22
2017-01-15T04:34:14.334Z,1.24
2017-01-15T04:34:54.843Z,1.26
2017-01-15T04:35:46.804Z,1.3
2017-01-15T04:36:29.873Z,1.2
2017-01-15T04:37:14.160Z,1.19
2017-01-15T04:37:55.467Z,1.26
2017-01-15T04:38:40.791Z,1.23
2017-01-15T04:39:27.782Z,1.17
2017-01-15T04:40:08.815Z,1.22
2017-01-15T04:40:53.798Z,1.24
2017-01-15T04:41:35.022Z,1.19
2017-01-15T04:42:19.907Z,1.2
2017-01-15T04:43:02.892Z,1.2
2017-01-15T04:43:47.767Z,1.23
2017-01-15T04:44:40.783Z,1.26
2017-01-15T04:45:22.829Z,1.23
2017-01-15T04:46:06.011Z,1.16
2017-01-15T04:46:51.286Z,1.17
2017-01-15T04:47:35.277Z,1.26
2017-01-15T04:48:15.839Z,1.2
2017-01-15T04:48:57.166Z,1.24
2017-01-15T04:49:38.292Z,1.26
2017-01-15T04:50:19.467Z,1.2
2017-01-15T04:51:01.567Z,1.22
2017-01-15T04:51:44.935Z,1.08
2017-01-15T04:52:25.467Z,1.1
2017-01-15T04:53:10.462Z,1.2
2017-01-15T04:53:51.589Z,1.06
2017-01-15T04:54:34.274Z,1.05
2017-01-15T04:55:18.459Z,1.1
2017-01-15T04:55:59.793Z,1.06
2017-01-15T04:56:40.267Z,1.06
2017-01-15T04:57:31.295Z,0.99
2017-01-15T04:58:17.566Z,1.02
2017-01-15T04:58:58.078Z,0.95
2017-01-15T04:59:41.873Z,0.98
2017-01-15T05:00:23.212Z,0.99
2017-01-15T05:01:05.269Z,0.96
2017-01-15T05:02:01.459Z,0.94
2017-01-15T05:02:45.411Z,0.96
2017-01-15T05:03:28.457Z,0.98
2017-01-15T05:04:09.470Z,0.99
2017-01-15T05:04:54.370Z,0.88
2017-01-15T05:05:37.366Z,0.91
2017-01-15T05:06:29.458Z,0.91
2017-01-15T05:07:10.788Z,0.92
2017-01-15T05:07:53.860Z,0.96
2017-01-15T05:08:34.357Z,0.99
2017-01-15T05:09:22.294Z,0.99
2017-01-15T05:13:57.842Z,0.95
2017-01-15T05:14:38.587Z,0.92
2017-01-15T05:15:19.879Z,0.84
2017-01-15T05:16:08.583Z,0.88
2017-01-15T05:16:51.584Z,0.78
2017-01-15T05:19:11.267Z,0.8
2017-01-15T06:10:56.552Z,0.68
2017-01-15T06:11:37.713Z,0.63
2017-01-15T06:12:21.434Z,0.63
2017-01-15T06:13:02.626Z,0.56
2017-01-15T06:13:43.709Z,0.65
2017-01-15T06:14:26.619Z,0.63
2017-01-15T06:15:08.465Z,0.74
2017-01-15T06:15:49.696Z,0.66
2017-01-15T06:16:33.444Z,0.65
2017-01-15T06:17:18.434Z,0.65
2017-01-15T06:18:05.587Z,0.68
2017-01-15T06:18:46.955Z,0.6
2017-01-15T06:19:31.927Z,0.59
2017-01-15T06:20:15.152Z,0.66
2017-01-15T06:28:23.177Z,0.73
2017-01-15T06:29:10.098Z,0.74
2017-01-15T06:29:50.580Z,0.66
2017-01-15T06:30:32.003Z,0.7
2017-01-15T06:31:12.498Z,0.7
2017-01-15T06:31:54.770Z,0.69
2017-01-15T06:32:36.107Z,0.73
2017-01-15T06:33:17.103Z,0.68
2017-01-15T06:34:05.115Z,0.77
2017-01-15T06:40:13.861Z,0.92
2017-01-15T06:40:55.726Z,0.88
2017-01-15T06:41:37.789Z,0.88
2017-01-15T06:42:20.702Z,0.84
2017-01-15T06:43:17.700Z,0.83
2017-01-15T06:43:58.173Z,0.86
2017-01-15T06:44:40.212Z,0.83
2017-01-15T06:45:23.408Z,0.91
2017-01-15T06:47:11.725Z,0.78
2017-01-15T06:48:03.973Z,0.81
2017-01-15T06:48:44.905Z,0.81
2017-01-15T06:49:28.651Z,0.8
2017-01-15T06:50:11.844Z,0.7
2017-01-15T06:50:53.300Z,0.78
2017-01-15T06:51:36.266Z,0.74
2017-01-15T06:52:26.357Z,0.77
2017-01-15T06:53:13.219Z,0.68
2017-01-15T06:54:13.107Z,0.68
2017-01-15T06:54:54.304Z,0.66
2017-01-15T06:55:35.503Z,0.63
2017-01-15T06:56:18.882Z,0.6
2017-01-15T06:57:01.635Z,0.55
2017-01-15T06:57:44.890Z,0.55
2017-01-15T06:58:27.216Z,0.46
2017-01-15T06:59:17.118Z,0.46
2017-01-15T07:00:07.132Z,0.37
2017-01-15T07:00:51.209Z,0.39
2017-01-15T07:01:32.628Z,0.44
2017-01-15T07:02:20.642Z,0.32
2017-01-15T07:03:21.613Z,0.34
2017-01-15T07:04:04.609Z,0.31
2017-01-15T07:04:58.136Z,0.15
2017-01-15T07:08:32.979Z,0.12
2017-01-15T07:09:13.991Z,0.12
2017-01-15T07:09:56.354Z,0.1
2017-01-15T07:10:38.589Z,0.08
2017-01-15T07:11:19.832Z,0.12
2017-01-15T07:12:01.001Z,0.11
2017-01-15T07:12:42.137Z,0.03
2017-01-15T07:13:25.432Z,0.04
2017-01-15T07:14:07.829Z,0.05
2017-01-15T07:14:50.853Z,-0.03
2017-01-15T07:15:36.934Z,-0.03
2017-01-15T07:16:18.100Z,-0.03
2017-01-15T07:17:02.827Z,-0.06
2017-01-15T07:17:57.011Z,-0.08
2017-01-15T07:18:50.850Z,-0.11
2017-01-15T07:19:32.839Z,-0.15
2017-01-15T07:20:18.033Z,-0.14
2017-01-15T07:21:01.048Z,-0.11
2017-01-15T07:21:45.854Z,-0.08
2017-01-15T07:22:34.082Z,-0.2
2017-01-15T07:23:17.844Z,-0.11
2017-01-15T07:23:59.839Z,-0.14
2017-01-15T07:24:41.919Z,-0.13
2017-01-15T07:25:23.116Z,-0.13
2017-01-15T07:26:07.001Z,-0.23
2017-01-15T07:26:49.852Z,-0.15
2017-01-15T07:27:33.828Z,-0.15
2017-01-15T07:28:18.850Z,-0.21
2017-01-15T07:29:00.130Z,-0.1
2017-01-15T07:29:43.437Z,-0.17
2017-01-15T07:30:26.420Z,-0.23
2017-01-15T07:31:26.450Z,-0.17
2017-01-15T07:32:16.352Z,-0.17
2017-01-15T07:33:06.513Z,-0.28
2017-01-15T07:33:48.342Z,-0.23
2017-01-15T07:34:31.431Z,-0.14
2017-01-15T07:35:21.368Z,-0.26
2017-01-15T07:37:12.336Z,-0.32
2017-01-15T07:37:55.036Z,-0.32
2017-01-15T07:38:35.527Z,-0.28
2017-01-15T07:39:16.529Z,-0.26
2017-01-15T07:39:57.026Z,-0.28
2017-01-15T07:42:16.280Z,-0.23
2017-01-15T07:42:57.782Z,-0.15
2017-01-15T07:43:39.207Z,-0.38
2017-01-15T07:44:20.610Z,-0.28
2017-01-15T07:45:04.694Z,-0.28
2017-01-15T07:45:45.724Z,-0.35
2017-01-15T07:46:44.713Z,-0.17
2017-01-15T07:47:34.723Z,-0.32
2017-01-15T07:48:16.779Z,-0.35
2017-01-15T07:48:59.288Z,-0.25
2017-01-15T07:49:43.199Z,-0.34
2017-01-15T07:50:23.717Z,-0.34
2017-01-15T07:51:06.783Z,-0.32
2017-01-15T07:51:48.194Z,-0.28
2017-01-15T07:52:29.209Z,-0.32
2017-01-15T07:53:10.476Z,-0.36
2017-01-15T07:53:51.807Z,-0.43
2017-01-15T07:54:35.911Z,-0.41
2017-01-15T07:55:16.883Z,-0.46
2017-01-15T07:56:01.888Z,-0.38
2017-01-15T07:56:45.712Z,-0.44
2017-01-15T07:57:26.728Z,-0.43
2017-01-15T07:58:10.791Z,-0.36
2017-01-15T07:58:53.799Z,-0.38
2017-01-15T07:59:40.726Z,-0.43
2017-01-15T08:00:45.719Z,-0.44
2017-01-15T08:01:28.911Z,-0.43
2017-01-15T08:02:09.991Z,-0.39
2017-01-15T08:02:56.228Z,-0.43
2017-01-15T08:03:37.721Z,-0.38
2017-01-15T08:04:26.721Z,-0.39
2017-01-15T08:05:17.785Z,-0.44
2017-01-15T08:06:00.112Z,-0.46
2017-01-15T08:06:43.224Z,-0.49
2017-01-15T08:07:30.220Z,-0.39
2017-01-15T08:08:13.210Z,-0.41
2017-01-15T08:08:58.215Z,-0.46
2017-01-15T08:09:50.364Z,-0.46
2017-01-15T08:10:33.297Z,-0.46
2017-01-15T08:11:16.311Z,-0.43
2017-01-15T08:12:55.482Z,-0.43
2017-01-15T08:13:49.826Z,-0.47
2017-01-15T08:14:32.453Z,-0.49
2017-01-15T08:15:14.513Z,-0.47
2017-01-15T08:15:55.880Z,-0.44
2017-01-15T08:16:38.360Z,-0.47
2017-01-15T08:17:19.847Z,-0.46
2017-01-15T08:18:00.416Z,-0.47
2017-01-15T08:18:44.359Z,-0.53
2017-01-15T08:19:30.454Z,-0.56
2017-01-15T08:20:10.919Z,-0.49
2017-01-15T08:20:51.390Z,-0.47
2017-01-15T08:21:33.359Z,-0.56
2017-01-15T08:22:14.529Z,-0.43
2017-01-15T08:22:57.638Z,-0.57
2017-01-15T08:23:42.440Z,-0.46
2017-01-15T08:24:32.457Z,-0.41
2017-01-15T08:25:16.538Z,-0.47
2017-01-15T08:25:57.957Z,-0.47
2017-01-15T08:26:44.837Z,-0.5
2017-01-15T08:27:31.965Z,-0.46
2017-01-15T08:28:21.031Z,-0.43
2017-01-15T08:29:04.356Z,-0.44
2017-01-15T08:29:57.543Z,-0.47
2017-01-15T08:30:51.442Z,-0.35
2017-01-15T08:31:34.445Z,-0.43
2017-01-15T08:32:16.341Z,-0.39
2017-01-15T08:33:01.440Z,-0.39
2017-01-15T08:35:16.539Z,-0.43
2017-01-15T08:35:56.786Z,-0.41
2017-01-15T08:38:12.714Z,-0.44
2017-01-15T08:38:56.050Z,-0.44
2017-01-15T08:39:36.754Z,-0.36
2017-01-15T08:40:26.966Z,-0.36
2017-01-15T08:41:08.853Z,-0.43
2017-01-15T08:41:54.187Z,-0.44
2017-01-15T08:42:43.384Z,-0.46
2017-01-15T08:43:26.392Z,-0.43
2017-01-15T08:44:22.261Z,-0.41
2017-01-15T08:45:14.250Z,-0.47
2017-01-15T08:46:13.211Z,-0.43
2017-01-15T08:46:56.700Z,-0.43
2017-01-15T08:47:43.195Z,-0.39
2017-01-15T08:48:26.281Z,-0.41
2017-01-15T08:49:10.571Z,-0.41
2017-01-15T08:49:54.369Z,-0.39
2017-01-15T08:52:11.442Z,-0.32
2017-01-15T08:52:53.339Z,-0.34
2017-01-15T08:53:36.320Z,-0.35
2017-01-15T08:54:18.595Z,-0.25
2017-01-15T08:54:59.634Z,-0.35
2017-01-15T08:55:40.128Z,-0.17
2017-01-15T08:56:23.082Z,-0.23
2017-01-15T08:57:05.324Z,-0.28
2017-01-15T08:57:58.217Z,-0.28
2017-01-15T08:58:40.138Z,-0.21
2017-01-15T09:00:39.438Z,-0.17
2017-01-15T09:01:22.180Z,-0.14
2017-01-15T09:02:09.011Z,-0.08
2017-01-15T09:02:50.019Z,-0.18
2017-01-15T09:03:35.013Z,-0.07
2017-01-15T09:04:16.212Z,-0.07
2017-01-15T09:05:03.315Z,-0.03
2017-01-15T09:05:45.593Z,0.03
2017-01-15T09:06:29.536Z,0.07
2017-01-15T09:07:14.621Z,0.05
2017-01-15T09:08:06.688Z,0.12
2017-01-15T09:08:47.208Z,0.08
2017-01-15T09:09:31.106Z,0.07
2017-01-15T09:10:12.401Z,0.05
2017-01-15T09:10:54.535Z,0.15
2017-01-15T09:11:34.980Z,0.23
2017-01-15T09:12:16.295Z,0.21
2017-01-15T09:12:56.783Z,0.11
2017-01-15T09:13:37.922Z,0.23
2017-01-15T09:14:23.030Z,0.25
2017-01-15T09:15:04.117Z,0.19
2017-01-15T09:15:45.435Z,0.34
2017-01-15T09:16:28.607Z,0.31
2017-01-15T09:17:10.029Z,0.32
2017-01-15T09:17:54.036Z,0.43
2017-01-15T09:18:38.100Z,0.43
2017-01-15T09:20:27.877Z,0.44
2017-01-15T09:21:09.310Z,0.37
2017-01-15T09:21:50.313Z,0.46
2017-01-15T09:22:30.760Z,0.44
2017-01-15T09:23:12.812Z,0.46
2017-01-15T09:23:56.818Z,0.43
2017-01-15T09:24:37.893Z,0.52
2017-01-15T09:25:18.887Z,0.52
2017-01-15T09:26:01.800Z,0.62
2017-01-15T09:26:42.353Z,0.49
2017-01-15T09:28:59.127Z,0.65
2017-01-15T09:31:13.661Z,0.7
2017-01-15T09:31:54.613Z,0.62
2017-01-15T09:32:42.602Z,0.65
2017-01-15T09:42:20.296Z,0.77
2017-01-15T09:43:02.365Z,0.8
2017-01-15T09:43:43.381Z,0.8
2017-01-15T09:44:27.229Z,0.94
2017-01-15T09:45:16.239Z,0.86
2017-01-15T09:45:57.401Z,0.8
2017-01-15T09:46:40.802Z,0.94
2017-01-15T09:47:21.900Z,0.94
2017-01-15T09:48:02.354Z,0.94
2017-01-15T09:53:29.475Z,1.02
2017-01-15T09:54:10.674Z,1.01
2017-01-15T09:56:30.208Z,1.1
2017-01-15T09:57:25.063Z,1.05
2017-01-15T09:58:10.070Z,1.14
2017-01-15T09:58:54.172Z,1.1
2017-01-15T09:59:43.151Z,1.1
2017-01-15T10:00:32.089Z,1.12
2017-01-15T10:01:14.094Z,1.13
2017-01-15T10:01:58.239Z,1.14
2017-01-15T10:02:42.165Z,1.14
2017-01-15T10:03:27.077Z,1.08
2017-01-15T10:04:14.085Z,1.2
2017-01-15T10:04:59.176Z,1.19
2017-01-15T10:15:04.084Z,1.37
2017-01-15T10:16:53.848Z,1.38
2017-01-15T10:17:37.040Z,1.41
2017-01-15T10:18:26.792Z,1.41
2017-01-15T10:19:10.903Z,1.37
2017-01-15T10:19:53.879Z,1.38
2017-01-15T10:20:42.905Z,1.41
2017-01-15T10:21:27.888Z,1.44
2017-01-15T10:26:15.247Z,1.42
2017-01-15T10:27:02.428Z,1.56
2017-01-15T10:29:19.541Z,1.67
2017-01-15T10:30:06.403Z,1.67
2017-01-15T10:31:02.418Z,1.62
2017-01-15T10:31:51.410Z,1.68
2017-01-15T10:32:40.419Z,1.63
2017-01-15T10:33:26.412Z,1.66
2017-01-15T10:34:10.480Z,1.59
2017-01-15T10:34:53.475Z,1.63
2017-01-15T10:35:49.680Z,1.6
2017-01-15T10:36:38.126Z,1.7
2017-01-15T10:37:25.912Z,1.67
2017-01-15T10:38:11.921Z,1.73
2017-01-15T10:39:00.920Z,1.68
2017-01-15T10:40:07.908Z,1.71
2017-01-15T10:40:49.924Z,1.67
2017-01-15T10:41:37.918Z,1.78
2017-01-15T10:42:22.945Z,1.63
2017-01-15T10:44:18.198Z,1.66
2017-01-15T10:45:05.262Z,1.73
2017-01-15T10:45:52.516Z,1.7
2017-01-15T10:48:13.506Z,1.74
2017-01-15T10:48:57.221Z,1.76
2017-01-15T10:49:49.137Z,1.77
2017-01-15T10:50:36.125Z,1.81
2017-01-15T10:51:19.370Z,1.8
2017-01-15T10:52:06.788Z,1.85
2017-01-15T10:52:48.112Z,1.85
2017-01-15T10:53:33.107Z,1.92
2017-01-15T10:54:17.116Z,1.94
2017-01-15T10:56:41.760Z,2.06
2017-01-15T10:57:22.795Z,1.99
2017-01-15T11:03:53.724Z,2.26
2017-01-15T11:04:37.952Z,2.29
2017-01-15T11:05:24.776Z,2.31
2017-01-15T11:06:06.027Z,2.29
2017-01-15T11:08:19.660Z,2.35
2017-01-15T11:09:01.617Z,2.32
2017-01-15T11:09:42.183Z,2.47
2017-01-15T11:10:24.023Z,2.44
2017-01-15T11:11:07.846Z,2.47
2017-01-15T11:13:09.021Z,2.61
2017-01-15T11:13:52.025Z,2.67
2017-01-15T11:14:36.109Z,2.67
2017-01-15T11:15:17.184Z,2.72
2017-01-15T11:15:57.671Z,2.75
2017-01-15T11:16:40.931Z,2.79
2017-01-15T11:17:31.011Z,2.79
2017-01-15T11:18:12.350Z,2.9
2017-01-15T11:19:00.972Z,2.9
2017-01-15T11:22:52.322Z,3.1
2017-01-15T11:23:34.395Z,3.11
2017-01-15T11:24:17.213Z,3.16
2017-01-15T11:24:58.359Z,3.23
2017-01-15T11:25:40.248Z,3.16
2017-01-15T11:26:25.139Z,3.28
2017-01-15T11:27:12.164Z,3.25
2017-01-15T11:27:55.148Z,3.31
2017-01-15T11:28:36.572Z,3.32
2017-01-15T11:29:20.628Z,3.37
2017-01-15T11:30:03.785Z,3.37
2017-01-15T11:32:03.035Z,3.48
2017-01-15T11:32:50.766Z,3.53
2017-01-15T11:33:36.792Z,3.51
2017-01-15T11:34:18.683Z,3.53
2017-01-15T11:35:01.761Z,3.63
2017-01-15T11:35:42.747Z,3.6
2017-01-15T11:36:31.657Z,3.77
2017-01-15T11:37:14.663Z,3.78
2017-01-15T11:37:58.755Z,3.76
2017-01-15T11:38:44.672Z,3.74
2017-01-15T11:39:32.664Z,3.8
2017-01-15T11:40:14.125Z,3.74
2017-01-15T11:40:55.353Z,3.78
2017-01-15T11:41:36.692Z,3.77
2017-01-15T11:42:19.772Z,3.83
2017-01-15T11:43:00.990Z,3.84
2017-01-15T11:43:45.667Z,3.99
2017-01-15T11:44:28.875Z,3.92
2017-01-15T11:45:09.352Z,3.96
2017-01-15T11:45:59.182Z,4.04
2017-01-15T11:46:50.206Z,4.04
2017-01-15T11:47:31.256Z,4.08
2017-01-15T11:48:15.159Z,4.13
2017-01-15T11:48:58.204Z,4.14
2017-01-15T11:49:44.332Z,4.04
2017-01-15T11:50:29.739Z,4.13
2017-01-15T11:51:13.826Z,4.12
2017-01-15T11:51:56.168Z,4.14
2017-01-15T11:53:58.767Z,4.16
2017-01-15T11:54:42.069Z,4.23
2017-01-15T11:55:23.898Z,4.13
2017-01-15T11:56:07.734Z,4.28
2017-01-15T11:56:50.750Z,4.3
2017-01-15T11:57:38.771Z,4.16
2017-01-15T11:58:19.263Z,4.16
2017-01-15T11:59:01.309Z,4.23
2017-01-15T11:59:43.628Z,4.23
2017-01-15T12:00:28.244Z,4.26
2017-01-15T12:01:13.347Z,4.34
2017-01-15T12:01:54.615Z,4.37
2017-01-15T12:02:35.758Z,4.31
2017-01-15T12:03:17.832Z,4.42
2017-01-15T12:03:59.810Z,4.38
2017-01-15T12:04:41.174Z,4.42
2017-01-15T12:05:21.739Z,4.45
2017-01-15T12:06:03.830Z,4.45
2017-01-15T12:06:45.141Z,4.41
2017-01-15T12:07:26.121Z,4.45
2017-01-15T12:08:07.332Z,4.45
2017-01-15T12:08:50.264Z,4.5
2017-01-15T12:09:34.459Z,4.5
2017-01-15T12:10:16.739Z,4.45
2017-01-15T12:10:57.254Z,4.49
2017-01-15T12:11:38.335Z,4.44
2017-01-15T12:12:25.243Z,4.52
2017-01-15T12:13:06.353Z,4.48
2017-01-15T12:13:52.369Z,4.44
2017-01-15T12:14:33.752Z,4.53
2017-01-15T12:15:18.898Z,4.6
2017-01-15T12:16:04.753Z,4.6
2017-01-15T12:16:52.844Z,4.6
2017-01-15T12:17:39.770Z,4.55
2017-01-15T12:18:26.896Z,4.59
2017-01-15T12:19:11.962Z,4.62
2017-01-15T12:19:56.792Z,4.6
2017-01-15T12:20:39.763Z,4.6
2017-01-15T12:21:29.844Z,4.63
2017-01-15T12:22:13.824Z,4.62
2017-01-15T12:23:00.755Z,4.63
2017-01-15T12:23:44.781Z,4.6
2017-01-15T12:24:28.759Z,4.59
2017-01-15T12:25:12.739Z,4.58
2017-01-15T12:26:55.839Z,4.66